createdAt,value
2022-11-03T00:01:13.372Z,13.20
2022-11-03T00:03:40.117Z,13.20
2022-11-03T00:06:06.905Z,13.20
2022-11-03T00:08:40.395Z,13.20
2022-11-03T00:11:07.936Z,13.30
2022-11-03T00:13:34.881Z,13.40
2022-11-03T00:16:01.539Z,13.40
2022-11-03T00:18:28.220Z,13.40
2022-11-03T00:21:01.609Z,13.40
2022-11-03T00:23:28.957Z,13.40
2022-11-03T00:25:55.857Z,13.40
2022-11-03T00:28:22.497Z,13.40
2022-11-03T00:30:49.124Z,13.40
2022-11-03T00:33:15.848Z,13.30
2022-11-03T00:35:42.564Z,13.30
2022-11-03T00:38:09.199Z,13.20
2022-11-03T00:40:35.839Z,13.10
2022-11-03T00:43:02.695Z,13.10
2022-11-03T00:45:29.401Z,13.00
2022-11-03T00:48:14.574Z,13.00
2022-11-03T00:50:41.239Z,12.90
2022-11-03T00:53:08.248Z,12.80
2022-11-03T00:55:35.013Z,12.90
2022-11-03T00:58:01.611Z,12.90
2022-11-03T01:00:28.252Z,12.90
2022-11-03T01:02:54.844Z,12.90
2022-11-03T01:05:40.161Z,12.80
2022-11-03T01:08:07.480Z,12.70
2022-11-03T01:10:36.044Z,12.60
2022-11-03T01:13:02.764Z,12.60
2022-11-03T01:15:29.436Z,12.60
2022-11-03T01:17:56.023Z,12.60
2022-11-03T01:20:22.644Z,12.60
2022-11-03T01:22:49.298Z,12.60
2022-11-03T01:25:15.942Z,12.50
2022-11-03T01:27:42.516Z,12.50
2022-11-03T01:30:09.374Z,12.50
2022-11-03T01:32:35.969Z,12.50
2022-11-03T01:35:02.647Z,12.50
2022-11-03T01:37:29.234Z,12.50
2022-11-03T01:39:55.907Z,12.60
2022-11-03T01:42:22.530Z,12.60
2022-11-03T01:44:49.340Z,12.60
2022-11-03T01:47:23.238Z,12.50
2022-11-03T01:49:54.761Z,12.40
2022-11-03T01:52:23.305Z,12.30
2022-11-03T01:54:51.695Z,12.30
2022-11-03T01:57:20.109Z,12.20
2022-11-03T01:59:46.698Z,12.10
2022-11-03T02:02:13.504Z,12.10
2022-11-03T02:04:40.188Z,12.10
2022-11-03T02:07:09.621Z,12.10
2022-11-03T02:09:36.270Z,12.20
2022-11-03T02:12:08.953Z,12.20
2022-11-03T02:14:36.272Z,12.20
2022-11-03T02:17:04.140Z,12.20
2022-11-03T02:19:35.044Z,12.20
2022-11-03T02:22:01.678Z,12.20
2022-11-03T02:24:31.375Z,12.10
2022-11-03T02:26:58.047Z,12.10
2022-11-03T02:29:24.648Z,12.00
2022-11-03T02:31:55.363Z,12.00
2022-11-03T02:34:23.729Z,12.00
2022-11-03T02:36:51.773Z,11.90
2022-11-03T02:39:23.138Z,11.90
2022-11-03T02:41:49.739Z,11.90
2022-11-03T02:44:17.399Z,11.90
2022-11-03T02:46:44.370Z,11.80
2022-11-03T02:49:11.042Z,11.80
2022-11-03T02:51:37.714Z,11.80
2022-11-03T02:54:10.447Z,11.80
2022-11-03T02:56:38.858Z,11.90
2022-11-03T02:59:06.959Z,11.90
2022-11-03T03:01:39.837Z,11.90
2022-11-03T03:04:08.048Z,11.90
2022-11-03T03:06:36.494Z,12.00
2022-11-03T03:09:04.092Z,12.00
2022-11-03T03:11:37.749Z,11.90
2022-11-03T03:14:06.646Z,11.90
2022-11-03T03:16:33.341Z,11.80
2022-11-03T03:19:04.343Z,11.80
2022-11-03T03:21:32.596Z,11.70
2022-11-03T03:24:25.623Z,11.70
2022-11-03T03:26:52.245Z,11.70
2022-11-03T03:29:22.819Z,11.50
2022-11-03T03:31:59.241Z,11.50
2022-11-03T03:34:35.767Z,11.40
2022-11-03T03:37:03.017Z,11.40
2022-11-03T03:39:30.337Z,11.40
2022-11-03T03:41:57.004Z,11.40
2022-11-03T03:44:24.967Z,11.50
2022-11-03T03:46:52.679Z,11.40
2022-11-03T03:49:19.264Z,11.40
2022-11-03T03:51:46.012Z,11.30
2022-11-03T03:54:12.588Z,11.30
2022-11-03T03:56:41.632Z,11.20
2022-11-03T03:59:08.628Z,11.20
2022-11-03T04:01:35.456Z,11.20
2022-11-03T04:04:02.169Z,11.30
2022-11-03T04:06:28.793Z,11.30
2022-11-03T04:08:55.405Z,11.30
2022-11-03T04:11:40.397Z,11.40
2022-11-03T04:14:26.587Z,11.40
2022-11-03T04:17:11.991Z,11.30
2022-11-03T04:19:57.097Z,11.40
2022-11-03T04:22:24.446Z,11.30
2022-11-03T04:24:51.387Z,11.30
2022-11-03T04:27:20.774Z,11.20
2022-11-03T04:29:47.455Z,11.20
2022-11-03T04:32:17.443Z,11.20
2022-11-03T04:34:46.942Z,11.10
2022-11-03T04:37:14.005Z,11.10
2022-11-03T04:39:40.733Z,11.10
2022-11-03T04:42:17.872Z,11.00
2022-11-03T04:44:44.688Z,11.00
2022-11-03T04:47:12.055Z,10.90
2022-11-03T04:49:38.655Z,10.90
2022-11-03T04:52:15.708Z,10.80
2022-11-03T04:54:42.509Z,10.80
2022-11-03T04:57:10.491Z,10.80
2022-11-03T04:59:37.118Z,10.70
2022-11-03T05:02:03.986Z,10.70
2022-11-03T05:04:30.752Z,10.70
2022-11-03T05:06:57.397Z,10.70
2022-11-03T05:09:25.111Z,10.70
2022-11-03T05:11:51.693Z,10.80
2022-11-03T05:14:19.818Z,10.80
2022-11-03T05:16:47.402Z,10.70
2022-11-03T05:19:33.548Z,10.70
2022-11-03T05:22:00.382Z,10.70
2022-11-03T05:24:27.740Z,10.70
2022-11-03T05:26:54.715Z,10.50
2022-11-03T05:29:22.088Z,10.50
2022-11-03T05:31:48.909Z,10.50
2022-11-03T05:34:15.524Z,10.60
2022-11-03T05:36:42.136Z,10.60
2022-11-03T05:39:17.833Z,10.70
2022-11-03T05:41:44.424Z,10.70
2022-11-03T05:44:30.265Z,10.70
2022-11-03T05:46:57.201Z,10.70
2022-11-03T05:49:23.873Z,10.70
2022-11-03T05:51:50.494Z,10.70
2022-11-03T05:54:24.312Z,10.80
2022-11-03T05:56:51.014Z,10.80
2022-11-03T05:59:19.617Z,10.80
2022-11-03T06:01:46.371Z,10.80
2022-11-03T06:04:20.109Z,10.90
2022-11-03T06:06:56.343Z,10.80
2022-11-03T06:09:23.564Z,10.90
2022-11-03T06:11:50.956Z,11.00
2022-11-03T06:14:24.022Z,11.10
2022-11-03T06:17:14.700Z,11.30
2022-11-03T06:19:42.301Z,11.50
2022-11-03T06:22:14.398Z,12.50
2022-11-03T06:24:41.010Z,13.60
2022-11-03T06:27:20.251Z,14.50
2022-11-03T06:29:49.492Z,15.30
2022-11-03T06:32:16.129Z,16.00
2022-11-03T06:34:49.735Z,16.40
2022-11-03T06:37:19.284Z,16.70
2022-11-03T06:39:45.998Z,17.10
2022-11-03T06:42:15.986Z,17.40
2022-11-03T06:44:51.740Z,17.60
2022-11-03T06:47:23.092Z,17.80
2022-11-03T06:49:50.399Z,18.40
2022-11-03T06:52:33.763Z,18.80
2022-11-03T06:55:01.963Z,19.30
2022-11-03T06:57:29.000Z,19.60
2022-11-03T07:00:06.766Z,19.60
2022-11-03T07:02:54.794Z,19.40
2022-11-03T07:05:22.453Z,19.40
2022-11-03T07:07:49.447Z,19.30
2022-11-03T07:10:16.451Z,19.30
2022-11-03T07:12:43.127Z,19.60
2022-11-03T07:15:16.929Z,20.30
2022-11-03T07:17:43.991Z,20.50
2022-11-03T07:20:14.556Z,20.70
2022-11-03T07:22:41.195Z,21.50
2022-11-03T07:25:09.436Z,21.90
2022-11-03T07:27:36.589Z,21.90
2022-11-03T07:30:12.343Z,22.10
2022-11-03T07:32:38.969Z,22.40
2022-11-03T07:35:17.811Z,22.90
2022-11-03T07:41:06.478Z,23.80
2022-11-03T07:43:34.771Z,24.00
2022-11-03T07:46:02.381Z,24.00
2022-11-03T07:48:33.682Z,24.10
2022-11-03T07:51:00.775Z,24.40
2022-11-03T07:53:30.583Z,24.70
2022-11-03T07:55:57.323Z,25.00
2022-11-03T07:58:35.140Z,25.00
2022-11-03T08:01:01.865Z,25.20
2022-11-03T08:03:32.969Z,25.60
2022-11-03T08:05:59.671Z,26.00
2022-11-03T08:08:26.344Z,26.40
2022-11-03T08:10:53.012Z,26.30
2022-11-03T08:13:19.689Z,25.80
2022-11-03T08:15:46.323Z,26.10
2022-11-03T08:18:12.954Z,25.90
2022-11-03T08:20:39.645Z,26.40
2022-11-03T08:23:24.683Z,26.80
2022-11-03T08:25:52.568Z,27.10
2022-11-03T08:28:19.313Z,27.20
2022-11-03T08:30:46.022Z,27.40
2022-11-03T08:33:12.694Z,27.50
2022-11-03T08:35:39.663Z,27.50
2022-11-03T08:38:06.612Z,27.80
2022-11-03T08:40:33.504Z,27.60
2022-11-03T08:43:03.056Z,27.50
2022-11-03T08:45:30.101Z,27.40
2022-11-03T08:47:56.874Z,27.40
2022-11-03T08:50:23.750Z,27.20
2022-11-03T08:52:50.576Z,26.80
2022-11-03T08:55:17.264Z,26.90
2022-11-03T08:57:43.924Z,27.00
2022-11-03T09:00:11.018Z,27.00
2022-11-03T09:02:37.773Z,27.50
2022-11-03T09:05:05.823Z,28.20
2022-11-03T09:10:21.129Z,28.90
2022-11-03T09:12:49.988Z,28.60
2022-11-03T09:15:16.670Z,28.10
2022-11-03T09:17:45.580Z,28.10
2022-11-03T09:20:12.762Z,28.80
2022-11-03T09:22:39.571Z,29.50
2022-11-03T09:25:06.844Z,30.10
2022-11-03T09:27:33.589Z,30.00
2022-11-03T09:30:12.843Z,30.00
2022-11-03T09:32:40.648Z,30.10
2022-11-03T09:35:08.509Z,30.00
2022-11-03T09:37:35.152Z,29.60
2022-11-03T09:40:02.198Z,28.50
2022-11-03T09:42:28.888Z,27.40
2022-11-03T09:44:55.520Z,26.50
2022-11-03T09:47:29.427Z,26.00
2022-11-03T09:49:56.846Z,25.10
2022-11-03T09:52:23.899Z,24.60
2022-11-03T09:54:52.107Z,24.40
2022-11-03T09:57:19.479Z,24.50
2022-11-03T09:59:46.756Z,24.50
2022-11-03T10:02:25.105Z,24.40
2022-11-03T10:04:52.621Z,24.30
2022-11-03T10:07:20.033Z,24.10
2022-11-03T10:09:47.804Z,24.10
2022-11-03T10:12:14.511Z,24.00
2022-11-03T10:14:41.552Z,23.90
2022-11-03T10:17:08.631Z,23.80
2022-11-03T10:19:35.317Z,23.70
2022-11-03T10:22:01.971Z,23.50
2022-11-03T10:24:28.650Z,23.40
2022-11-03T10:26:55.469Z,23.50
2022-11-03T10:29:25.651Z,23.80
2022-11-03T10:31:53.421Z,24.30
2022-11-03T10:34:26.206Z,25.00
2022-11-03T10:37:12.531Z,25.30
2022-11-03T10:39:39.212Z,25.50
2022-11-03T10:42:05.927Z,25.40
2022-11-03T10:44:32.612Z,25.20
2022-11-03T10:47:03.036Z,25.00
2022-11-03T10:49:33.876Z,24.90
2022-11-03T10:52:20.957Z,24.90
2022-11-03T10:54:47.861Z,25.00
2022-11-03T10:57:14.532Z,25.10
2022-11-03T10:59:41.217Z,25.30
2022-11-03T11:02:18.435Z,25.60
2022-11-03T11:04:56.600Z,26.00
2022-11-03T11:07:33.826Z,26.90
2022-11-03T11:10:13.487Z,27.40
2022-11-03T11:12:40.274Z,27.60
2022-11-03T11:15:25.899Z,27.60
2022-11-03T11:17:52.669Z,27.50
2022-11-03T11:20:28.451Z,27.20
2022-11-03T11:22:55.182Z,26.80
2022-11-03T11:25:22.078Z,26.40
2022-11-03T11:27:54.188Z,26.10
2022-11-03T11:30:27.554Z,25.70
2022-11-03T11:33:01.204Z,25.40
2022-11-03T11:35:27.887Z,25.00
2022-11-03T11:37:54.604Z,24.70
2022-11-03T11:40:41.504Z,24.40
2022-11-03T11:43:11.669Z,24.30
2022-11-03T11:45:57.237Z,24.10
2022-11-03T11:48:23.915Z,24.00
2022-11-03T11:50:50.600Z,23.90
2022-11-03T11:53:20.724Z,23.80
2022-11-03T11:55:49.026Z,23.70
2022-11-03T11:58:17.478Z,23.60
2022-11-03T12:00:51.587Z,23.50
2022-11-03T12:03:18.309Z,23.40
2022-11-03T12:05:45.027Z,23.00
2022-11-03T12:08:18.842Z,22.80
2022-11-03T12:10:55.143Z,22.50
2022-11-03T12:13:37.110Z,22.50
2022-11-03T12:16:03.869Z,22.60
2022-11-03T12:18:38.890Z,22.70
2022-11-03T12:21:07.650Z,22.70
2022-11-03T12:23:35.303Z,22.70
2022-11-03T12:26:02.488Z,22.70
2022-11-03T12:28:35.370Z,22.70
2022-11-03T12:31:02.295Z,22.60
2022-11-03T12:33:29.091Z,22.60
2022-11-03T12:35:56.221Z,22.60
2022-11-03T12:38:23.340Z,22.60
2022-11-03T12:40:50.108Z,22.60
2022-11-03T12:43:16.902Z,22.60
2022-11-03T12:45:43.550Z,22.60
2022-11-03T12:48:10.211Z,22.60
2022-11-03T12:50:37.938Z,22.50
2022-11-03T12:53:06.742Z,22.50
2022-11-03T12:55:34.254Z,22.50
2022-11-03T12:58:00.971Z,22.40
2022-11-03T13:00:27.641Z,22.50
2022-11-03T13:02:54.671Z,22.40
2022-11-03T13:05:21.444Z,22.40
2022-11-03T13:07:48.188Z,22.40
2022-11-03T13:10:15.023Z,22.40
2022-11-03T13:12:41.860Z,22.40
2022-11-03T13:15:10.206Z,22.40
2022-11-03T13:17:59.343Z,22.40
2022-11-03T13:20:23.700Z,22.50
2022-11-03T13:22:50.357Z,22.50
2022-11-03T13:25:17.628Z,22.50
2022-11-03T13:27:44.628Z,22.50
2022-11-03T13:30:12.170Z,22.40
2022-11-03T13:32:38.803Z,22.40
2022-11-03T13:35:09.407Z,22.40
2022-11-03T13:37:39.213Z,22.30
2022-11-03T13:40:06.412Z,22.20
2022-11-03T13:42:33.154Z,22.20
2022-11-03T13:45:00.787Z,22.20
2022-11-03T13:47:42.030Z,22.20
2022-11-03T13:50:15.086Z,22.30
2022-11-03T13:52:42.238Z,22.30
2022-11-03T14:00:43.076Z,22.20
2022-11-03T14:05:56.784Z,22.10
2022-11-03T14:08:23.506Z,22.10
2022-11-03T14:10:50.217Z,22.00
2022-11-03T14:13:16.970Z,22.00
2022-11-03T14:15:43.662Z,22.00
2022-11-03T14:18:10.397Z,21.90
2022-11-03T14:20:37.559Z,21.90
2022-11-03T14:23:04.449Z,21.90
2022-11-03T14:25:31.283Z,22.00
2022-11-03T14:27:58.043Z,21.90
2022-11-03T14:30:24.773Z,22.00
2022-11-03T14:32:54.245Z,21.90
2022-11-03T14:35:25.071Z,21.90
2022-11-03T14:37:51.784Z,21.90
2022-11-03T14:40:37.208Z,21.80
2022-11-03T14:43:04.108Z,21.70
2022-11-03T14:45:30.961Z,21.50
2022-11-03T14:47:57.690Z,21.40
2022-11-03T14:50:24.409Z,21.40
2022-11-03T14:52:51.854Z,21.30
2022-11-03T14:55:20.600Z,21.20
2022-11-03T14:57:47.324Z,21.20
2022-11-03T15:00:14.109Z,21.10
2022-11-03T15:02:40.940Z,21.10
2022-11-03T15:05:27.750Z,21.00
2022-11-03T15:07:54.408Z,20.90
2022-11-03T15:10:21.108Z,20.90
2022-11-03T15:12:47.779Z,20.70
2022-11-03T15:15:14.497Z,20.70
2022-11-03T15:17:41.299Z,20.60
2022-11-03T15:20:08.446Z,20.60
2022-11-03T15:25:26.304Z,20.30
2022-11-03T15:27:56.858Z,20.20
2022-11-03T15:30:23.675Z,20.10
2022-11-03T15:32:50.411Z,20.00
2022-11-03T15:35:17.670Z,19.90
2022-11-03T15:37:45.219Z,19.80
2022-11-03T15:40:15.303Z,19.70
2022-11-03T15:42:42.062Z,19.70
2022-11-03T15:45:10.050Z,19.60
2022-11-03T15:47:36.808Z,19.50
2022-11-03T15:50:04.032Z,19.40
2022-11-03T15:52:30.768Z,19.30
2022-11-03T15:54:57.478Z,19.20
2022-11-03T15:57:24.583Z,19.10
2022-11-03T15:59:53.875Z,19.00
2022-11-03T16:05:10.431Z,18.80
2022-11-03T16:07:37.125Z,18.80
2022-11-03T16:10:04.250Z,18.70
2022-11-03T16:12:31.021Z,18.60
2022-11-03T16:14:57.738Z,18.60
2022-11-03T16:17:24.496Z,18.50
2022-11-03T16:19:51.225Z,18.40
2022-11-03T16:22:17.986Z,18.40
2022-11-03T16:24:46.469Z,18.30
2022-11-03T16:27:13.291Z,18.30
2022-11-03T16:29:40.094Z,18.30
2022-11-03T16:32:06.796Z,18.20
2022-11-03T16:34:33.567Z,18.20
2022-11-03T16:37:00.761Z,18.20
2022-11-03T16:39:27.502Z,18.20
2022-11-03T16:41:55.090Z,18.10
2022-11-03T16:44:22.085Z,18.10
2022-11-03T16:46:48.899Z,18.00
2022-11-03T16:49:15.589Z,18.00
2022-11-03T16:51:42.299Z,18.00
2022-11-03T16:54:09.527Z,17.90
2022-11-03T16:56:36.570Z,17.80
2022-11-03T16:59:03.315Z,17.70
2022-11-03T17:01:30.233Z,17.70
2022-11-03T17:03:57.050Z,17.60
2022-11-03T17:06:23.802Z,17.60
2022-11-03T17:08:53.446Z,17.50
2022-11-03T17:11:35.948Z,17.40
2022-11-03T17:14:03.837Z,17.40
2022-11-03T17:16:30.564Z,17.30
2022-11-03T17:18:58.421Z,17.30
2022-11-03T17:21:25.577Z,17.20
2022-11-03T17:23:52.274Z,17.10
2022-11-03T17:26:19.764Z,17.10
2022-11-03T17:28:46.558Z,17.00
2022-11-03T17:31:13.243Z,17.00
2022-11-03T17:33:39.924Z,16.90
2022-11-03T17:36:06.830Z,16.90
2022-11-03T17:38:33.548Z,16.80
2022-11-03T17:41:00.263Z,16.70
2022-11-03T17:43:27.484Z,16.60
2022-11-03T17:45:54.255Z,16.50
2022-11-03T17:48:23.124Z,16.40
2022-11-03T17:50:50.945Z,16.30
2022-11-03T17:53:23.563Z,16.20
2022-11-03T17:56:08.872Z,16.10
2022-11-03T17:58:41.750Z,16.10
2022-11-03T18:01:12.018Z,16.10
2022-11-03T18:03:38.941Z,16.10
2022-11-03T18:06:12.320Z,16.20
2022-11-03T18:08:39.002Z,16.10
2022-11-03T18:11:05.739Z,16.10
2022-11-03T18:13:34.456Z,16.00
2022-11-03T18:16:10.773Z,15.90
2022-11-03T18:18:38.012Z,15.90
2022-11-03T18:21:04.773Z,15.90
2022-11-03T18:23:31.938Z,15.80
2022-11-03T18:26:01.678Z,15.80
2022-11-03T18:28:28.505Z,15.80
2022-11-03T18:30:55.646Z,15.70
2022-11-03T18:33:23.586Z,15.70
2022-11-03T18:35:50.377Z,15.70
2022-11-03T18:38:17.171Z,15.60
2022-11-03T18:40:43.998Z,15.60
2022-11-03T18:43:14.273Z,15.60
2022-11-03T18:45:41.032Z,15.60
2022-11-03T18:48:07.806Z,15.60
2022-11-03T18:50:34.867Z,15.50
2022-11-03T18:53:01.561Z,15.50
2022-11-03T18:55:28.258Z,15.40
2022-11-03T18:57:54.982Z,15.40
2022-11-03T19:00:22.820Z,15.30
2022-11-03T19:02:50.476Z,15.40
2022-11-03T19:05:17.583Z,15.30
2022-11-03T19:07:45.337Z,15.20
2022-11-03T19:10:16.002Z,15.10
2022-11-03T19:12:43.786Z,15.10
2022-11-03T19:15:14.040Z,15.10
2022-11-03T19:17:40.724Z,15.10
2022-11-03T19:20:12.527Z,15.10
2022-11-03T19:22:39.226Z,15.10
2022-11-03T19:25:06.108Z,15.10
2022-11-03T19:27:32.874Z,15.10
2022-11-03T19:29:59.528Z,15.00
2022-11-03T19:32:30.220Z,15.00
2022-11-03T19:35:17.121Z,14.90
2022-11-03T19:37:43.805Z,14.90
2022-11-03T19:40:12.624Z,14.90
2022-11-03T19:42:39.616Z,14.90
2022-11-03T19:45:07.226Z,14.90
2022-11-03T19:48:24.798Z,14.80
2022-11-03T19:50:40.825Z,14.70
2022-11-03T19:53:07.601Z,14.70
2022-11-03T19:55:34.836Z,14.60
2022-11-03T19:58:11.481Z,14.50
2022-11-03T20:00:38.139Z,14.50
2022-11-03T20:03:05.050Z,14.50
2022-11-03T20:05:31.763Z,14.50
2022-11-03T20:07:59.831Z,14.40
2022-11-03T20:10:28.299Z,14.40
2022-11-03T20:12:55.975Z,14.40
2022-11-03T20:15:22.681Z,14.40
2022-11-03T20:17:49.737Z,14.30
2022-11-03T20:20:17.254Z,14.30
2022-11-03T20:22:50.246Z,14.30
2022-11-03T20:25:20.918Z,14.20
2022-11-03T20:27:47.862Z,14.10
2022-11-03T20:30:15.276Z,14.00
2022-11-03T20:32:42.073Z,13.90
2022-11-03T20:35:09.837Z,13.90
2022-11-03T20:37:36.811Z,13.90
2022-11-03T20:40:04.268Z,13.90
2022-11-03T20:42:30.915Z,13.90
2022-11-03T20:44:58.538Z,13.80
2022-11-03T20:47:25.196Z,13.80
2022-11-03T20:49:51.931Z,13.80
2022-11-03T20:52:18.726Z,13.80
2022-11-03T20:54:45.435Z,13.80
2022-11-03T20:57:12.691Z,13.80
2022-11-03T20:59:39.534Z,13.80
2022-11-03T21:02:12.427Z,13.80
2022-11-03T21:04:39.428Z,13.80
2022-11-03T21:07:06.423Z,13.70
2022-11-03T21:09:33.048Z,13.70
2022-11-03T21:11:59.734Z,13.70
2022-11-03T21:14:32.924Z,13.60
2022-11-03T21:17:18.267Z,13.50
2022-11-03T21:20:01.971Z,13.50
2022-11-03T21:25:19.380Z,13.50
2022-11-03T21:27:46.073Z,13.60
2022-11-03T21:30:13.337Z,13.60
2022-11-03T21:32:40.173Z,13.60
2022-11-03T21:35:07.036Z,13.60
2022-11-03T21:37:33.684Z,13.50
2022-11-03T21:40:00.333Z,13.40
2022-11-03T21:42:45.735Z,13.40
2022-11-03T21:45:15.842Z,13.40
2022-11-03T21:48:02.470Z,13.30
2022-11-03T21:50:29.118Z,13.30
2022-11-03T21:52:55.836Z,13.20
2022-11-03T21:55:22.520Z,13.10
2022-11-03T21:57:49.191Z,13.10
2022-11-03T22:00:16.209Z,13.10
2022-11-03T22:02:42.879Z,13.00
2022-11-03T22:05:11.012Z,13.00
2022-11-03T22:07:37.880Z,13.00
2022-11-03T22:10:05.012Z,13.00
2022-11-03T22:12:31.883Z,13.00
2022-11-03T22:15:16.974Z,13.00
2022-11-03T22:17:44.500Z,12.90
2022-11-03T22:20:29.705Z,12.90
2022-11-03T22:23:17.723Z,12.80
2022-11-03T22:26:02.999Z,12.80
2022-11-03T22:28:29.671Z,12.80
2022-11-03T22:31:14.877Z,12.80
2022-11-03T22:33:59.974Z,12.80
2022-11-03T22:36:27.073Z,12.70
2022-11-03T22:39:12.211Z,12.70
2022-11-03T22:41:59.628Z,12.70
2022-11-03T22:44:48.647Z,12.60
2022-11-03T22:47:18.467Z,12.70
2022-11-03T22:49:45.627Z,12.60
2022-11-03T22:52:12.265Z,12.60
2022-11-03T22:54:38.869Z,12.70
2022-11-03T22:57:07.667Z,12.60
2022-11-03T22:59:34.348Z,12.60
2022-11-03T23:02:01.021Z,12.60
2022-11-03T23:04:27.812Z,12.60
2022-11-03T23:06:54.449Z,12.70
2022-11-03T23:09:21.127Z,12.70
2022-11-03T23:11:48.284Z,12.70
2022-11-03T23:14:14.949Z,12.80
2022-11-03T23:16:42.406Z,12.70
2022-11-03T23:19:28.382Z,12.70
2022-11-03T23:21:55.090Z,12.80
2022-11-03T23:24:43.953Z,12.80
2022-11-03T23:27:12.252Z,12.80
2022-11-03T23:29:39.035Z,12.80
2022-11-03T23:32:05.752Z,12.70
2022-11-03T23:34:34.667Z,12.80
2022-11-03T23:37:01.337Z,12.80
2022-11-03T23:39:28.000Z,12.70
2022-11-03T23:41:54.754Z,12.70
2022-11-03T23:44:21.410Z,12.70
2022-11-03T23:47:06.814Z,12.70
2022-11-03T23:49:33.455Z,12.70
2022-11-03T23:52:00.117Z,12.70
2022-11-03T23:54:27.313Z,12.80
2022-11-03T23:57:12.484Z,12.70
2022-11-03T23:59:39.405Z,12.70
